Time;durP1;ratioP1;P1;durP2;ratioP2;P2;SDS_P1;SDS_P2;PMS_P1;PMS_P2;Temp;Humidity;BMP_temperature;BMP_pressure;BME280_temperature;BME280_humidity;BME280_pressure;Samples;Min_cycle;Max_cycle;Signal;HPM_P1;HPM_P2
2023/11/05 00:02:07;;;;;;;10.48;3.97;;;24.60;99.90;;;;;;5014861;28;20046;-48
2023/11/05 00:04:33;;;;;;;6.10;3.33;;;24.50;99.90;;;;;;5014990;28;20040;-48
2023/11/05 00:06:58;;;;;;;7.32;3.17;;;24.50;99.90;;;;;;5015092;28;20355;-48
2023/11/05 00:09:24;;;;;;;5.75;2.75;;;24.50;99.90;;;;;;5014926;28;20030;-48
2023/11/05 00:11:50;;;;;;;6.07;3.35;;;24.50;99.90;;;;;;5014961;28;20097;-48
2023/11/05 00:14:16;;;;;;;5.60;3.03;;;24.50;99.90;;;;;;5014751;28;20110;-48
2023/11/05 00:16:41;;;;;;;6.97;3.25;;;24.50;99.90;;;;;;5014760;28;20025;-49
2023/11/05 00:19:08;;;;;;;7.82;3.33;;;24.50;99.90;;;;;;5014995;28;20030;-48
2023/11/05 00:21:34;;;;;;;6.57;3.25;;;24.50;99.90;;;;;;5014672;28;20044;-48
2023/11/05 00:24:01;;;;;;;7.25;2.85;;;24.50;99.90;;;;;;5014709;28;20128;-48
2023/11/05 00:26:26;;;;;;;5.35;2.88;;;24.40;99.90;;;;;;5014581;28;20030;-48
2023/11/05 00:28:52;;;;;;;7.25;3.47;;;24.40;99.90;;;;;;5013431;28;20032;-48
2023/11/05 00:31:18;;;;;;;4.63;2.50;;;24.40;99.90;;;;;;5014597;28;20033;-48
2023/11/05 00:33:44;;;;;;;8.00;3.13;;;24.40;99.90;;;;;;5029529;28;20501;-48
2023/11/05 00:36:10;;;;;;;7.65;2.83;;;24.40;99.90;;;;;;5014861;28;20585;-48
2023/11/05 00:38:36;;;;;;;4.63;2.45;;;24.30;99.90;;;;;;5014363;28;20037;-48
2023/11/05 00:41:02;;;;;;;6.15;2.72;;;24.30;99.90;;;;;;5014375;28;20093;-49
2023/11/05 00:43:29;;;;;;;6.35;2.97;;;24.30;99.90;;;;;;5014385;28;20153;-49
2023/11/05 00:45:54;;;;;;;5.63;2.65;;;24.30;99.90;;;;;;5014283;28;20025;-47
2023/11/05 00:48:20;;;;;;;5.18;2.53;;;24.30;99.90;;;;;;5029665;28;20029;-49
2023/11/05 00:50:46;;;;;;;7.25;2.78;;;24.30;99.90;;;;;;5014302;28;20060;-49
2023/11/05 00:53:11;;;;;;;6.97;2.92;;;24.30;99.90;;;;;;5014612;28;20621;-49
2023/11/05 00:55:37;;;;;;;5.78;3.03;;;24.30;99.90;;;;;;5014083;28;20041;-49
2023/11/05 00:58:03;;;;;;;7.45;3.13;;;24.30;99.90;;;;;;5012870;28;20080;-49
2023/11/05 01:00:29;;;;;;;6.40;2.80;;;24.30;99.90;;;;;;5014437;28;20359;-49
2023/11/05 01:02:55;;;;;;;8.35;2.72;;;24.20;99.90;;;;;;5013861;28;20490;-49
2023/11/05 01:05:21;;;;;;;7.78;2.97;;;24.30;99.90;;;;;;5014082;28;20030;-49
2023/11/05 01:07:47;;;;;;;6.10;2.50;;;24.20;99.90;;;;;;5014070;28;20029;-49
2023/11/05 01:10:12;;;;;;;5.95;2.13;;;24.20;99.90;;;;;;5014590;28;20045;-49
2023/11/05 01:12:39;;;;;;;6.78;2.67;;;24.20;99.90;;;;;;5013867;28;20054;-49
2023/11/05 01:15:05;;;;;;;6.88;3.10;;;24.20;99.90;;;;;;5013818;28;20041;-49
2023/11/05 01:17:31;;;;;;;7.75;2.45;;;24.20;99.90;;;;;;5013945;28;20398;-50
2023/11/05 01:19:56;;;;;;;5.22;2.20;;;24.20;99.90;;;;;;5013804;28;20022;-50
2023/11/05 01:22:22;;;;;;;8.30;2.67;;;24.10;99.90;;;;;;5013802;28;20029;-49
2023/11/05 01:24:49;;;;;;;8.23;2.60;;;24.20;99.90;;;;;;5013781;28;20474;-49
2023/11/05 01:27:14;;;;;;;6.18;2.67;;;24.10;99.90;;;;;;5013759;28;20351;-50
2023/11/05 01:29:40;;;;;;;11.77;2.83;;;24.10;99.90;;;;;;5013709;28;20029;-49
2023/11/05 01:32:07;;;;;;;5.47;2.10;;;24.10;99.90;;;;;;5013503;28;20014;-49
2023/11/05 01:34:33;;;;;;;6.00;2.47;;;24.10;99.90;;;;;;5013496;28;20095;-49
2023/11/05 01:36:59;;;;;;;7.43;2.58;;;24.10;99.90;;;;;;5013358;28;20417;-49
2023/11/05 01:39:25;;;;;;;4.78;2.13;;;24.10;99.90;;;;;;5013332;28;20022;-49
2023/11/05 01:41:51;;;;;;;7.47;2.35;;;24.10;99.90;;;;;;5013192;28;20469;-49
2023/11/05 01:44:19;;;;;;;6.30;2.60;;;24.00;99.90;;;;;;5013448;28;20041;-49
2023/11/05 01:46:44;;;;;;;10.30;2.83;;;24.10;99.90;;;;;;5013571;28;20026;-49
2023/11/05 01:49:12;;;;;;;7.93;2.50;;;24.10;99.90;;;;;;5013175;28;20037;-49
2023/11/05 01:51:38;;;;;;;6.30;2.20;;;24.00;99.90;;;;;;5013224;28;20381;-49
2023/11/05 01:54:05;;;;;;;9.15;2.53;;;24.00;99.90;;;;;;5012992;28;20099;-49
2023/11/05 01:56:32;;;;;;;5.45;2.10;;;24.00;99.90;;;;;;5013105;28;20437;-49
2023/11/05 01:58:59;;;;;;;9.18;2.08;;;24.00;99.90;;;;;;5013027;28;20466;-49
2023/11/05 02:01:26;;;;;;;6.50;1.93;;;24.00;99.90;;;;;;5013208;28;20060;-49
2023/11/05 02:03:52;;;;;;;6.13;2.10;;;24.00;99.90;;;;;;5013171;28;20344;-49
2023/11/05 02:06:18;;;;;;;7.32;2.75;;;24.00;99.90;;;;;;5012986;28;20113;-49
2023/11/05 02:08:44;;;;;;;6.85;3.05;;;24.00;99.90;;;;;;5013018;28;20424;-49
2023/11/05 02:11:10;;;;;;;6.72;2.35;;;23.90;99.90;;;;;;5012923;28;20513;-49
2023/11/05 02:13:52;;;;;;;7.50;3.03;;;23.90;99.90;;;;;;5012880;28;20156;-49
2023/11/05 02:16:20;;;;;;;8.00;3.30;;;23.90;99.90;;;;;;5012913;28;20105;-49
2023/11/05 02:18:47;;;;;;;9.15;3.60;;;23.90;99.90;;;;;;5013043;28;20034;-49
2023/11/05 02:21:35;;;;;;;9.95;3.50;;;23.90;99.90;;;;;;5012878;28;20044;-49
2023/11/05 02:24:01;;;;;;;11.25;3.50;;;23.90;99.90;;;;;;5012802;28;20058;-49
2023/11/05 02:26:27;;;;;;;10.70;4.32;;;23.90;99.90;;;;;;5012716;28;20072;-49
2023/11/05 02:28:52;;;;;;;11.07;3.85;;;23.90;99.90;;;;;;5012976;28;20083;-49
2023/11/05 02:31:18;;;;;;;8.73;4.20;;;23.90;99.90;;;;;;5012758;28;20050;-49
2023/11/05 02:33:44;;;;;;;10.73;4.80;;;23.90;99.90;;;;;;5012553;28;20441;-49
2023/11/05 02:36:11;;;;;;;12.13;5.38;;;23.90;99.90;;;;;;5027631;28;20479;-49
2023/11/05 02:38:38;;;;;;;11.02;5.25;;;23.90;99.90;;;;;;5012577;28;20498;-49
2023/11/05 02:41:07;;;;;;;12.77;5.28;;;23.80;99.90;;;;;;5012438;28;20038;-49
2023/11/05 02:43:33;;;;;;;10.77;5.85;;;23.90;99.90;;;;;;5012488;28;20030;-49
2023/11/05 02:46:00;;;;;;;9.48;5.25;;;23.80;99.90;;;;;;5012536;28;20018;-49
2023/11/05 02:48:25;;;;;;;9.50;5.15;;;23.80;99.90;;;;;;5011275;28;20049;-49
2023/11/05 02:50:51;;;;;;;15.98;6.07;;;23.80;99.90;;;;;;5012418;28;20119;-49
2023/11/05 02:53:18;;;;;;;14.00;6.45;;;23.80;99.90;;;;;;5015200;28;20486;-49
2023/11/05 02:55:44;;;;;;;15.68;7.97;;;23.80;99.90;;;;;;5016434;28;20094;-50
2023/11/05 02:58:14;;;;;;;12.32;6.65;;;23.80;99.90;;;;;;5016353;28;20161;-49
2023/11/05 03:00:41;;;;;;;16.00;6.90;;;23.80;99.90;;;;;;5016751;28;20053;-49
2023/11/05 03:03:07;;;;;;;12.80;6.15;;;23.80;99.90;;;;;;5031491;28;20060;-49
2023/11/05 03:05:33;;;;;;;14.35;6.80;;;23.70;99.90;;;;;;5016374;28;20040;-49
2023/11/05 03:07:59;;;;;;;15.25;7.22;;;23.70;99.90;;;;;;5015125;28;20478;-49
2023/11/05 03:10:24;;;;;;;13.50;5.60;;;23.70;99.90;;;;;;5016310;28;20025;-49
2023/11/05 03:12:50;;;;;;;13.20;6.10;;;23.70;99.90;;;;;;5016364;28;20026;-49
2023/11/05 03:15:16;;;;;;;14.45;6.05;;;23.70;99.90;;;;;;5016444;28;20105;-49
2023/11/05 03:17:42;;;;;;;12.93;6.47;;;23.70;99.90;;;;;;5016020;28;20026;-49
2023/11/05 03:20:08;;;;;;;14.45;6.47;;;23.70;99.90;;;;;;5016112;28;20053;-49
2023/11/05 03:22:37;;;;;;;14.50;6.85;;;23.70;99.90;;;;;;5016110;28;20029;-49
2023/11/05 03:25:04;;;;;;;14.23;6.05;;;23.70;99.90;;;;;;5016173;28;20092;-49
2023/11/05 03:27:30;;;;;;;15.07;6.25;;;23.70;99.90;;;;;;5015991;28;20025;-49
2023/11/05 03:29:56;;;;;;;14.30;6.78;;;23.70;99.90;;;;;;5030994;28;20034;-49
2023/11/05 03:32:22;;;;;;;14.13;6.30;;;23.70;99.90;;;;;;5015745;28;20080;-49
2023/11/05 03:34:48;;;;;;;12.98;6.05;;;23.60;99.90;;;;;;5015995;28;20026;-49
2023/11/05 03:37:14;;;;;;;12.70;6.25;;;23.70;99.90;;;;;;5015773;28;20553;-49
2023/11/05 03:39:40;;;;;;;15.07;6.47;;;23.60;99.90;;;;;;5015630;28;20022;-50
2023/11/05 03:42:07;;;;;;;12.85;5.68;;;23.60;99.90;;;;;;5015617;28;20083;-49
2023/11/05 03:44:34;;;;;;;12.60;5.10;;;23.60;99.90;;;;;;5015646;28;20032;-49
2023/11/05 03:47:01;;;;;;;15.77;7.13;;;23.60;99.90;;;;;;5015705;28;20033;-49
2023/11/05 03:49:27;;;;;;;15.27;6.18;;;23.60;99.90;;;;;;5015502;28;20271;-49
2023/11/05 03:51:53;;;;;;;12.57;5.85;;;23.60;99.90;;;;;;5015551;28;20084;-49
2023/11/05 03:54:19;;;;;;;13.35;5.20;;;23.60;99.90;;;;;;5015521;28;20034;-49
2023/11/05 03:56:44;;;;;;;12.05;4.85;;;23.60;99.90;;;;;;5015288;28;20025;-49
2023/11/05 03:59:10;;;;;;;13.73;5.82;;;23.60;99.90;;;;;;5015389;28;20478;-49
2023/11/05 04:01:36;;;;;;;10.50;5.32;;;23.50;99.90;;;;;;5015654;28;20044;-49
2023/11/05 04:04:02;;;;;;;13.35;5.68;;;23.50;99.90;;;;;;5015218;28;20089;-49
2023/11/05 04:06:27;;;;;;;12.60;5.43;;;23.50;99.90;;;;;;5015340;28;20034;-49
2023/11/05 04:08:53;;;;;;;15.23;5.30;;;23.50;99.90;;;;;;5030431;28;20024;-49
2023/11/05 04:11:19;;;;;;;12.48;5.25;;;23.50;99.90;;;;;;5015393;28;20050;-49
2023/11/05 04:13:46;;;;;;;13.45;5.40;;;23.50;99.90;;;;;;5015030;28;20033;-49
2023/11/05 04:16:12;;;;;;;10.60;4.53;;;23.50;99.90;;;;;;5015071;28;20029;-49
2023/11/05 04:18:39;;;;;;;9.32;4.05;;;23.50;99.90;;;;;;5014845;28;20025;-49
2023/11/05 04:21:05;;;;;;;14.32;5.28;;;23.50;99.90;;;;;;5014964;28;20080;-49
2023/11/05 04:23:33;;;;;;;11.15;4.75;;;23.40;99.90;;;;;;5014961;28;20054;-49
2023/11/05 04:25:58;;;;;;;;;;;23.40;99.90;;;;;;5015332;28;20014;-49
2023/11/05 04:28:24;;;;;;;12.07;4.65;;;23.40;99.90;;;;;;5015068;28;19951;-49
2023/11/05 04:30:50;;;;;;;11.82;4.30;;;23.40;99.90;;;;;;5015075;28;20028;-49
2023/11/05 04:33:16;;;;;;;8.65;5.05;;;23.40;99.90;;;;;;5014561;28;20052;-49
2023/11/05 04:35:42;;;;;;;10.50;4.65;;;23.40;99.90;;;;;;5014788;28;20022;-49
2023/11/05 04:38:08;;;;;;;9.95;3.92;;;23.40;99.90;;;;;;5013561;28;20062;-49
2023/11/05 04:40:34;;;;;;;10.43;4.20;;;23.40;99.90;;;;;;5014568;28;20052;-49
2023/11/05 04:43:00;;;;;;;9.98;4.07;;;23.40;99.90;;;;;;5014516;28;20033;-49
2023/11/05 04:45:26;;;;;;;11.18;4.60;;;23.40;99.90;;;;;;5014282;28;20072;-49
2023/11/05 04:47:51;;;;;;;11.35;4.22;;;23.40;99.90;;;;;;5014673;28;20072;-49
2023/11/05 04:50:17;;;;;;;9.95;3.95;;;23.40;99.90;;;;;;5014320;28;20080;-49
2023/11/05 04:52:43;;;;;;;11.77;4.20;;;23.40;99.90;;;;;;5014289;28;20057;-49
2023/11/05 04:55:09;;;;;;;14.65;4.25;;;23.30;99.90;;;;;;5014348;28;20117;-49
2023/11/05 04:57:35;;;;;;;13.35;4.00;;;23.30;99.90;;;;;;5014217;28;20030;-49
2023/11/05 05:00:01;;;;;;;7.00;3.38;;;23.30;99.90;;;;;;5014268;28;20028;-49
2023/11/05 05:02:26;;;;;;;10.30;3.70;;;23.30;99.90;;;;;;5014475;28;20038;-49
2023/11/05 05:04:52;;;;;;;8.25;4.10;;;23.30;99.90;;;;;;5029508;28;20052;-49
2023/11/05 05:07:18;;;;;;;7.30;3.17;;;23.30;99.90;;;;;;5029336;28;20478;-49
2023/11/05 05:09:44;;;;;;;8.68;3.70;;;23.30;99.90;;;;;;5013872;28;20041;-49
2023/11/05 05:12:10;;;;;;;10.50;3.72;;;23.30;99.90;;;;;;5013721;28;20467;-49
2023/11/05 05:14:36;;;;;;;9.10;3.80;;;23.30;99.90;;;;;;5013537;28;20033;-49
2023/11/05 05:17:02;;;;;;;9.10;3.35;;;23.30;99.90;;;;;;5013921;28;20072;-49
2023/11/05 05:19:28;;;;;;;9.38;3.50;;;23.30;99.90;;;;;;5013959;28;20030;-49
2023/11/05 05:21:53;;;;;;;9.98;3.65;;;23.30;99.90;;;;;;5013900;28;20018;-49
2023/11/05 05:24:19;;;;;;;9.52;3.08;;;23.30;99.90;;;;;;5013807;28;20022;-49
2023/11/05 05:26:45;;;;;;;11.85;3.63;;;23.30;99.90;;;;;;5013709;28;20026;-49
2023/11/05 05:29:11;;;;;;;8.05;3.20;;;23.30;99.90;;;;;;5013814;28;20022;-49
2023/11/05 05:31:37;;;;;;;10.52;3.20;;;23.20;99.90;;;;;;5013634;28;20076;-49
2023/11/05 05:34:03;;;;;;;9.48;3.15;;;23.20;99.90;;;;;;5013632;28;20048;-49
2023/11/05 05:36:29;;;;;;;8.77;3.33;;;23.20;99.90;;;;;;5013599;28;20022;-49
2023/11/05 05:38:54;;;;;;;6.82;3.30;;;23.20;99.90;;;;;;5013593;28;20025;-49
2023/11/05 05:41:20;;;;;;;9.32;3.33;;;23.20;99.90;;;;;;5013526;28;20075;-49
2023/11/05 05:43:46;;;;;;;6.60;3.00;;;23.20;99.90;;;;;;5028648;28;20383;-49
2023/11/05 05:46:15;;;;;;;7.43;3.20;;;23.20;99.90;;;;;;5013468;28;20018;-49
2023/11/05 05:48:41;;;;;;;7.68;2.58;;;23.20;99.90;;;;;;5013316;28;20036;-49
2023/11/05 05:51:09;;;;;;;8.65;3.55;;;23.20;99.90;;;;;;5013283;28;20026;-49
2023/11/05 05:53:35;;;;;;;10.30;3.58;;;23.20;99.90;;;;;;5013098;28;20107;-49
2023/11/05 05:56:01;;;;;;;12.55;3.83;;;23.20;99.90;;;;;;5013251;28;20466;-49
2023/11/05 05:58:27;;;;;;;6.65;2.83;;;23.10;99.90;;;;;;5013376;28;20025;-49
2023/11/05 06:00:52;;;;;;;7.93;3.08;;;23.10;99.90;;;;;;5013368;28;20026;-49
2023/11/05 06:03:18;;;;;;;8.57;3.25;;;23.10;99.90;;;;;;5012840;28;20036;-49
2023/11/05 06:05:44;;;;;;;7.32;2.80;;;23.10;99.90;;;;;;5012275;28;20561;-49
2023/11/05 06:08:10;;;;;;;10.35;3.55;;;23.10;99.90;;;;;;5011124;28;20021;-49
2023/11/05 06:10:36;;;;;;;10.60;3.47;;;23.10;99.90;;;;;;5012830;28;20116;-49
2023/11/05 06:13:01;;;;;;;7.95;3.03;;;23.10;99.90;;;;;;5012367;28;20038;-49
2023/11/05 06:15:27;;;;;;;7.97;2.70;;;23.10;99.90;;;;;;5013158;28;20024;-49
2023/11/05 06:17:53;;;;;;;9.80;3.30;;;23.10;99.90;;;;;;5012703;28;20485;-49
2023/11/05 06:20:19;;;;;;;7.22;2.45;;;23.10;99.90;;;;;;5012834;28;20444;-49
2023/11/05 06:22:45;;;;;;;9.40;2.78;;;23.10;99.90;;;;;;5012710;28;20022;-49
2023/11/05 06:25:10;;;;;;;8.48;2.85;;;23.10;99.90;;;;;;5012706;28;20026;-49
2023/11/05 06:27:38;;;;;;;6.07;2.22;;;23.10;99.90;;;;;;5011955;28;20056;-49
2023/11/05 06:30:06;;;;;;;6.55;2.72;;;23.00;99.90;;;;;;5012663;28;20026;-49
2023/11/05 06:32:33;;;;;;;6.28;2.60;;;23.00;99.90;;;;;;5012579;28;20033;-49
2023/11/05 06:34:59;;;;;;;5.63;2.33;;;23.00;99.90;;;;;;5012796;28;20033;-49
2023/11/05 06:37:25;;;;;;;9.55;2.80;;;23.00;99.90;;;;;;5012485;28;20029;-49
2023/11/05 06:39:51;;;;;;;9.32;3.00;;;23.00;99.90;;;;;;5012517;28;20502;-49
2023/11/05 06:42:17;;;;;;;8.38;2.60;;;23.00;99.90;;;;;;5012580;28;20526;-49
2023/11/05 06:44:43;;;;;;;6.78;2.72;;;23.00;99.90;;;;;;5012470;28;20410;-49
2023/11/05 06:47:09;;;;;;;7.70;2.35;;;23.00;99.90;;;;;;5012414;28;20052;-49
2023/11/05 06:49:35;;;;;;;7.05;2.25;;;23.00;99.90;;;;;;5012472;28;20036;-49
2023/11/05 06:52:00;;;;;;;8.18;2.67;;;23.00;99.90;;;;;;5012593;28;20309;-50
2023/11/05 06:54:27;;;;;;;7.43;2.53;;;23.00;99.90;;;;;;5012210;28;20080;-49
2023/11/05 06:56:53;;;;;;;9.05;3.08;;;23.00;99.90;;;;;;5012267;28;20114;-49
2023/11/05 06:59:19;;;;;;;7.45;2.97;;;22.90;99.90;;;;;;5012421;28;20441;-48
2023/11/05 07:01:46;;;;;;;8.50;2.40;;;22.90;99.90;;;;;;5012140;28;20133;-49
2023/11/05 07:04:13;;;;;;;6.45;2.65;;;22.90;99.90;;;;;;5012370;28;20109;-49
2023/11/05 07:06:38;;;;;;;6.95;3.25;;;22.90;99.90;;;;;;5012273;28;20026;-50
2023/11/05 07:09:06;;;;;;;11.07;2.63;;;22.90;99.90;;;;;;5012375;28;20105;-50
2023/11/05 07:11:32;;;;;;;13.30;2.55;;;22.90;99.90;;;;;;5012552;28;20068;-54
2023/11/05 07:14:00;;;;;;;7.80;2.53;;;22.90;99.90;;;;;;5012580;28;20551;-49
2023/11/05 07:16:26;;;;;;;9.93;2.58;;;22.90;99.90;;;;;;5012234;28;20049;-49
2023/11/05 07:18:53;;;;;;;9.93;2.67;;;22.90;99.90;;;;;;5027270;28;20436;-49
2023/11/05 07:21:19;;;;;;;8.27;2.80;;;22.90;99.90;;;;;;5012079;28;20105;-49
2023/11/05 07:23:47;;;;;;;9.07;2.88;;;22.90;99.90;;;;;;5011988;28;20449;-49
2023/11/05 07:26:13;;;;;;;6.28;2.50;;;22.90;99.90;;;;;;5012167;28;20029;-49
2023/11/05 07:28:39;;;;;;;8.05;2.42;;;22.90;99.90;;;;;;5012172;28;20029;-49
2023/11/05 07:31:05;;;;;;;9.23;2.63;;;22.90;99.90;;;;;;5012061;28;20037;-49
2023/11/05 07:33:31;;;;;;;8.57;2.63;;;23.00;99.90;;;;;;5012049;28;20076;-50
2023/11/05 07:35:59;;;;;;;8.55;2.72;;;23.00;99.90;;;;;;5012014;28;20045;-49
2023/11/05 07:38:26;;;;;;;8.20;2.50;;;23.00;99.90;;;;;;5013160;28;20030;-49
2023/11/05 07:40:52;;;;;;;6.72;2.42;;;23.00;99.90;;;;;;5015660;28;20052;-49
2023/11/05 07:43:18;;;;;;;8.18;2.50;;;23.00;99.90;;;;;;5015567;28;20466;-49
2023/11/05 07:45:44;;;;;;;6.65;2.42;;;23.10;99.90;;;;;;5015568;28;20037;-49
2023/11/05 07:48:10;;;;;;;10.25;3.50;;;23.10;99.90;;;;;;5015540;28;20097;-50
2023/11/05 07:50:36;;;;;;;8.98;2.70;;;23.10;99.90;;;;;;5015614;28;20034;-49
2023/11/05 07:53:02;;;;;;;7.38;2.38;;;23.10;99.90;;;;;;5015624;28;20160;-49
2023/11/05 07:55:27;;;;;;;5.82;2.60;;;23.20;99.90;;;;;;5015357;28;20112;-49
2023/11/05 07:57:53;;;;;;;8.20;2.70;;;23.20;99.90;;;;;;5015341;28;20026;-49
2023/11/05 08:00:19;;;;;;;6.80;2.95;;;23.20;99.90;;;;;;5015339;28;20026;-49
2023/11/05 08:02:47;;;;;;;8.07;2.45;;;23.30;99.90;;;;;;5015091;28;20049;-49
2023/11/05 08:05:13;;;;;;;10.05;2.85;;;23.30;99.90;;;;;;5015272;28;20026;-49
2023/11/05 08:07:39;;;;;;;7.72;2.30;;;23.30;99.90;;;;;;5015226;28;20375;-49
2023/11/05 08:10:08;;;;;;;5.45;2.10;;;23.40;99.90;;;;;;5013994;28;20022;-49
2023/11/05 08:12:35;;;;;;;8.75;2.20;;;23.40;99.90;;;;;;5015222;28;20509;-49
2023/11/05 08:15:02;;;;;;;8.60;2.92;;;23.40;99.90;;;;;;5030157;28;20478;-49
2023/11/05 08:17:28;;;;;;;7.63;2.20;;;23.50;99.90;;;;;;5014901;28;20026;-50
2023/11/05 08:19:54;;;;;;;8.82;2.63;;;23.50;99.90;;;;;;5014864;28;20037;-49
2023/11/05 08:22:20;;;;;;;6.78;2.42;;;23.60;99.90;;;;;;5015025;28;20025;-49
2023/11/05 08:24:46;;;;;;;10.43;2.75;;;23.60;99.90;;;;;;5014983;28;20429;-50
2023/11/05 08:27:12;;;;;;;6.38;2.20;;;23.60;99.90;;;;;;5014814;28;20470;-50
2023/11/05 08:29:41;;;;;;;9.48;2.45;;;23.60;99.90;;;;;;5014812;28;20037;-49
2023/11/05 08:32:07;;;;;;;7.97;2.15;;;23.60;99.90;;;;;;5013700;28;20033;-49
2023/11/05 08:34:34;;;;;;;7.97;2.42;;;23.70;99.90;;;;;;5014807;28;20038;-49
2023/11/05 08:37:00;;;;;;;7.70;2.43;;;23.70;99.90;;;;;;5014783;28;20478;-50
2023/11/05 08:39:27;;;;;;;8.68;2.70;;;23.80;99.90;;;;;;5014540;28;20271;-49
2023/11/05 08:41:53;;;;;;;6.78;2.17;;;23.80;99.90;;;;;;5014684;28;20026;-49
2023/11/05 08:44:20;;;;;;;8.48;3.05;;;23.80;99.90;;;;;;5014494;28;20036;-49
2023/11/05 08:46:46;;;;;;;11.00;2.47;;;23.90;99.90;;;;;;5013181;28;20128;-49
2023/11/05 08:49:12;;;;;;;5.57;1.83;;;23.90;99.90;;;;;;5014226;28;20060;-49
2023/11/05 08:51:38;;;;;;;8.98;2.50;;;23.90;99.90;;;;;;5013912;28;20022;-50
2023/11/05 08:54:04;;;;;;;9.02;2.65;;;23.90;99.90;;;;;;5029560;28;20065;-49
2023/11/05 08:56:30;;;;;;;6.33;2.50;;;23.90;99.90;;;;;;5014159;28;20478;-49
2023/11/05 08:58:56;;;;;;;8.35;2.63;;;24.00;99.90;;;;;;5014144;28;20029;-49
2023/11/05 09:01:22;;;;;;;8.43;2.90;;;24.00;99.90;;;;;;5014108;28;20393;-50
2023/11/05 09:03:48;;;;;;;7.40;2.88;;;24.00;99.90;;;;;;5014065;28;20481;-50
2023/11/05 09:06:15;;;;;;;8.90;2.50;;;24.10;99.90;;;;;;5012736;28;20033;-50
2023/11/05 09:08:41;;;;;;;11.30;3.65;;;24.10;99.90;;;;;;5014044;28;20045;-49
2023/11/05 09:11:08;;;;;;;11.90;3.55;;;24.20;99.90;;;;;;5014174;28;20081;-49
2023/11/05 09:13:35;;;;;;;10.77;3.63;;;24.20;99.90;;;;;;5013855;28;20049;-49
2023/11/05 09:16:01;;;;;;;8.60;3.25;;;24.20;99.90;;;;;;5012609;28;20041;-49
2023/11/05 09:18:28;;;;;;;7.85;3.10;;;24.30;99.90;;;;;;5013739;28;20033;-50
2023/11/05 09:20:56;;;;;;;9.68;3.83;;;24.30;99.90;;;;;;5013794;28;20101;-49
2023/11/05 09:23:23;;;;;;;8.60;3.40;;;24.30;99.90;;;;;;5013862;28;20414;-49
2023/11/05 09:25:49;;;;;;;10.93;3.67;;;24.40;99.90;;;;;;5012580;28;20018;-49
2023/11/05 09:28:16;;;;;;;7.45;3.30;;;24.40;99.90;;;;;;5012207;28;20030;-49
2023/11/05 09:30:42;;;;;;;11.95;3.97;;;24.40;99.90;;;;;;5013950;28;20022;-49
2023/11/05 09:33:09;;;;;;;8.70;3.72;;;24.50;99.90;;;;;;5013526;28;20026;-49
2023/11/05 09:35:36;;;;;;;8.65;3.28;;;24.50;99.90;;;;;;5013497;28;20485;-50
2023/11/05 09:38:03;;;;;;;5.82;2.85;;;24.50;99.90;;;;;;5013448;28;20104;-50
2023/11/05 09:40:31;;;;;;;10.70;3.63;;;24.60;99.90;;;;;;5013478;28;20478;-49
2023/11/05 09:43:05;;;;;;;5.50;2.55;;;24.60;99.90;;;;;;5013388;28;20116;-50
2023/11/05 09:45:35;;;;;;;7.10;2.80;;;24.70;99.90;;;;;;5013166;28;20044;-50
2023/11/05 09:48:05;;;;;;;7.75;2.95;;;24.70;99.90;;;;;;5012074;28;20113;-50
2023/11/05 09:50:35;;;;;;;8.07;3.05;;;24.70;99.90;;;;;;5013220;28;20022;-50
2023/11/05 09:53:15;;;;;;;8.43;3.38;;;24.80;99.90;;;;;;5012981;28;20502;-50
2023/11/05 09:55:43;;;;;;;8.52;3.83;;;24.80;99.90;;;;;;5013302;28;20556;-50
2023/11/05 09:58:09;;;;;;;7.40;3.13;;;24.90;99.90;;;;;;5013162;28;20036;-50
2023/11/05 10:00:36;;;;;;;6.93;2.90;;;24.90;99.90;;;;;;5012818;28;20037;-50
2023/11/05 10:03:07;;;;;;;6.68;2.95;;;25.00;99.90;;;;;;5012522;28;20073;-50
2023/11/05 10:05:34;;;;;;;7.07;3.08;;;25.00;99.90;;;;;;5012738;28;20029;-50
2023/11/05 10:08:00;;;;;;;7.18;2.95;;;25.10;99.90;;;;;;5012734;28;20037;-50
2023/11/05 10:10:26;;;;;;;7.57;2.95;;;25.20;99.90;;;;;;5012705;28;20029;-50
2023/11/05 10:12:53;;;;;;;5.95;3.20;;;25.20;99.90;;;;;;5012732;28;20109;-50
2023/11/05 10:15:23;;;;;;;8.85;2.55;;;25.30;99.90;;;;;;5012827;28;20109;-50
2023/11/05 10:17:50;;;;;;;8.85;3.55;;;25.30;99.90;;;;;;5012484;28;20502;-50
2023/11/05 10:20:15;;;;;;;7.60;2.95;;;25.30;99.90;;;;;;5012441;28;20429;-49
2023/11/05 10:22:43;;;;;;;8.48;3.40;;;25.40;99.90;;;;;;5012631;28;20034;-49
2023/11/05 10:25:25;;;;;;;5.75;2.83;;;25.40;99.90;;;;;;5011416;28;20033;-50
2023/11/05 10:27:53;;;;;;;5.55;2.67;;;25.50;99.90;;;;;;5011164;28;20026;-50
2023/11/05 10:30:22;;;;;;;6.03;2.40;;;25.50;99.90;;;;;;5012447;28;20022;-49
2023/11/05 10:32:49;;;;;;;6.75;3.17;;;25.60;99.90;;;;;;5012258;28;20030;-50
2023/11/05 10:35:30;;;;;;;9.73;3.30;;;25.70;99.90;;;;;;5012620;28;20025;-49
2023/11/05 10:37:57;;;;;;;7.60;3.03;;;25.70;99.90;;;;;;5012602;28;20030;-49
2023/11/05 10:40:23;;;;;;;7.55;3.30;;;25.70;99.90;;;;;;5012569;28;20490;-49
2023/11/05 10:42:49;;;;;;;13.48;2.70;;;25.80;99.90;;;;;;5027693;28;20030;-49
2023/11/05 10:45:17;;;;;;;7.93;3.17;;;25.80;99.90;;;;;;5012369;28;20018;-49
2023/11/05 10:47:47;;;;;;;13.35;3.13;;;25.80;99.90;;;;;;5012649;28;20398;-50
2023/11/05 10:50:16;;;;;;;8.35;3.08;;;25.90;99.90;;;;;;5011394;28;20117;-49
2023/11/05 10:52:44;;;;;;;5.35;2.92;;;25.90;99.90;;;;;;5012487;28;20036;-50
2023/11/05 10:55:11;;;;;;;6.60;2.80;;;25.90;99.90;;;;;;5012539;28;20053;-49
2023/11/05 10:57:48;;;;;;;6.43;2.88;;;26.00;99.90;;;;;;5012267;28;20022;-49
2023/11/05 11:00:22;;;;;;;8.07;2.90;;;26.00;99.90;;;;;;5012625;28;20038;-52
2023/11/05 11:02:49;;;;;;;6.55;3.05;;;26.00;99.90;;;;;;5012188;28;20046;-50
2023/11/05 11:05:15;;;;;;;8.60;3.10;;;26.10;99.90;;;;;;5012476;28;20032;-50
2023/11/05 11:07:42;;;;;;;10.10;3.50;;;26.10;99.90;;;;;;5012366;28;20060;-50
2023/11/05 11:10:19;;;;;;;7.57;3.20;;;26.10;99.90;;;;;;5012289;28;20402;-50
2023/11/05 11:12:45;;;;;;;6.10;2.95;;;26.20;99.90;;;;;;5012577;28;20400;-50
2023/11/05 11:15:35;;;;;;;7.80;2.90;;;26.20;99.90;;;;;;5016416;28;20034;-50
2023/11/05 11:18:05;;;;;;;6.47;3.22;;;26.20;99.90;;;;;;5016123;28;20105;-50
2023/11/05 11:20:32;;;;;;;9.10;3.20;;;26.30;99.90;;;;;;5015931;28;20018;-50
2023/11/05 11:23:02;;;;;;;7.32;2.90;;;26.30;99.90;;;;;;5015824;28;20470;-49
2023/11/05 11:25:33;;;;;;;7.15;3.10;;;26.30;99.90;;;;;;5015772;28;20029;-50
2023/11/05 11:28:00;;;;;;;7.82;3.45;;;26.30;99.90;;;;;;5015831;28;20098;-50
2023/11/05 11:30:26;;;;;;;7.07;3.20;;;26.30;99.90;;;;;;5015839;28;20367;-49
2023/11/05 11:32:55;;;;;;;8.10;3.37;;;26.40;99.90;;;;;;5015616;28;20026;-50
2023/11/05 11:35:21;;;;;;;6.70;3.35;;;26.40;99.90;;;;;;5015720;28;20018;-50
2023/11/05 11:37:47;;;;;;;9.82;3.60;;;26.40;99.90;;;;;;5015484;28;20033;-50
2023/11/05 11:40:14;;;;;;;7.93;3.00;;;26.50;99.90;;;;;;5015787;28;20031;-50
2023/11/05 11:42:40;;;;;;;8.20;3.28;;;26.50;99.90;;;;;;5030627;28;20490;-50
2023/11/05 11:45:06;;;;;;;6.88;2.70;;;26.50;99.90;;;;;;5015389;28;20030;-49
2023/11/05 11:47:33;;;;;;;7.40;3.28;;;26.50;99.90;;;;;;5015749;28;20421;-50
2023/11/05 11:50:09;;;;;;;7.00;2.90;;;26.50;99.90;;;;;;5015407;28;20053;-50
2023/11/05 11:52:51;;;;;;;6.70;3.40;;;26.60;99.90;;;;;;5015431;28;20029;-50
2023/11/05 11:55:17;;;;;;;7.53;2.55;;;26.60;99.90;;;;;;5015701;28;20030;-50
2023/11/05 11:57:43;;;;;;;10.02;3.35;;;26.60;99.90;;;;;;5015371;28;20497;-50
2023/11/05 12:00:14;;;;;;;21.33;3.53;;;26.60;99.90;;;;;;5015261;28;20048;-50
2023/11/05 12:02:40;;;;;;;7.63;3.35;;;26.60;99.90;;;;;;5015088;28;20038;-49
2023/11/05 12:05:07;;;;;;;9.17;2.93;;;26.70;99.90;;;;;;5015337;28;20072;-50
2023/11/05 12:07:49;;;;;;;7.90;2.92;;;26.70;99.90;;;;;;5015126;28;20037;-50
2023/11/05 12:10:16;;;;;;;8.02;2.80;;;26.70;99.90;;;;;;5015276;28;20040;-50
2023/11/05 12:12:46;;;;;;;6.72;3.22;;;26.70;99.90;;;;;;5014960;28;20049;-49
2023/11/05 12:15:20;;;;;;;11.50;2.53;;;26.70;99.90;;;;;;5015016;28;20025;-49
2023/11/05 12:17:50;;;;;;;6.60;2.60;;;26.80;99.90;;;;;;5015162;28;20429;-50
2023/11/05 12:20:16;;;;;;;10.43;3.22;;;26.80;99.90;;;;;;5015273;28;20057;-50
2023/11/05 12:22:45;;;;;;;8.85;3.17;;;26.80;99.90;;;;;;5014833;28;20399;-50
2023/11/05 12:25:12;;;;;;;9.55;3.28;;;26.80;99.90;;;;;;5013430;28;20104;-50
2023/11/05 12:27:48;;;;;;;15.73;3.75;;;26.80;99.90;;;;;;5014679;28;20025;-50
2023/11/05 12:30:19;;;;;;;14.05;3.35;;;26.90;99.90;;;;;;5014997;28;20105;-50
2023/11/05 12:32:45;;;;;;;11.82;2.90;;;26.90;99.90;;;;;;5014786;28;20023;-50
2023/11/05 12:35:11;;;;;;;9.55;3.55;;;26.90;99.90;;;;;;5014687;28;20038;-49
2023/11/05 12:37:37;;;;;;;9.68;3.22;;;26.90;99.90;;;;;;5032057;28;20040;-51
2023/11/05 12:40:07;;;;;;;8.90;3.92;;;26.90;99.90;;;;;;5034238;28;20048;-49
2023/11/05 12:42:34;;;;;;;7.20;3.00;;;26.90;99.90;;;;;;5033192;28;20499;-50